Cheraw, SC

3:12 AM EDT on March 23, 2017 (GMT -0400)
Cheraw

Weather History for KCQW - March, 2013

Change the Weather History Date:

Thursday, March 7, 2013

  Actual Average (KFLO) Record (KFLO)
Temperature  
Mean Temperature 42 °F -  
Max Temperature 53 °F 64 °F 89 °F (1974)
Min Temperature 32 °F 39 °F 20 °F (1960)
Degree Days  
Heating Degree Days 22    
Moisture  
Dew Point 25 °F    
Average Humidity 53    
Maximum Humidity 75    
Minimum Humidity 33    
Precipitation  
Precipitation 0.00 in - - ()
Sea Level Pressure  
Sea Level Pressure 30.17 in    
Wind  
Wind Speed - (North)    
Max Wind Speed -    
Max Gust Speed -    
Visibility 10 miles    
Events      
Averages and records for this station are not official NWS values.
T = Trace of Precipitation, MM = Missing Value Source: NWS Daily Summary

Daily Weather History Graph

Daily Weather History Graph

Search for Another Location

Airport or City:

Trip Planner

Search our weather history database for the weather conditions in past years. The results will help you decide how hot, cold, wet, or windy it might be!

Date:

Astronomy

Mar. 07, 2013 Rise Set
Actual Time 6:40 AM EST 6:21 PM EST
Civil Twilight 6:15 AM EST 6:46 PM EST
Nautical Twilight 5:46 AM EST 7:15 PM EST
Astronomical Twilight 5:17 AM EST 7:44 PM EST
Moon 3:30 AM EST (3/7) 2:15 PM EST (3/7)
Length of Visible Light 12h 30m
Length of Day
11h 40m
Waning Crescent, 20% of the Moon is Illuminated
Mar 7
Waning Crescent
Mar 11
New
Mar 19
First Quarter
Mar 27
Full
Apr 3
Last Quarter

Hourly Weather History & Observations

Time (EST) Temp. Dew Point Humidity Pressure Visibility Wind Dir Wind Speed Gust Speed Precip Events Conditions
12:15 AM 35.6 °F 24.8 °F 65% 30.10 in 10.0 mi North - - N/A   Clear
12:35 AM 35.6 °F 24.8 °F 65% 30.10 in 10.0 mi North - - N/A   Clear
12:55 AM 35.6 °F 24.8 °F 65% 30.10 in 10.0 mi North - - N/A   Clear
1:15 AM 35.6 °F 24.8 °F 65% 30.11 in 10.0 mi North - - N/A   Clear
1:35 AM 35.6 °F 24.8 °F 65% 30.12 in 10.0 mi North - - N/A   Clear
1:55 AM 35.6 °F 24.8 °F 65% 30.11 in 10.0 mi North - - N/A   Clear
2:15 AM 35.6 °F 24.8 °F 65% 30.12 in 10.0 mi North - - N/A   Clear
2:35 AM 33.8 °F 24.8 °F 70% 30.12 in 10.0 mi North - - N/A   Clear
2:55 AM 33.8 °F 24.8 °F 70% 30.11 in 10.0 mi North - - N/A   Clear
3:15 AM 33.8 °F 24.8 °F 70% 30.12 in 10.0 mi North - - N/A   Clear
3:35 AM 33.8 °F 24.8 °F 70% 30.11 in 10.0 mi North - - N/A   Clear
3:55 AM 32.0 °F 24.8 °F 75% 30.12 in 10.0 mi North - - N/A   Clear
4:15 AM 32.0 °F 24.8 °F 75% 30.12 in 10.0 mi North - - N/A   Clear
4:35 AM 32.0 °F 24.8 °F 75% 30.12 in 10.0 mi North - - N/A   Clear
4:55 AM 32.0 °F 24.8 °F 75% 30.14 in 10.0 mi North - - N/A   Clear
5:15 AM 32.0 °F 24.8 °F 75% 30.15 in 10.0 mi North - - N/A   Clear
5:35 AM 32.0 °F 24.8 °F 75% 30.15 in 10.0 mi North - - N/A   Clear
5:55 AM 32.0 °F 24.8 °F 75% 30.17 in 10.0 mi North - - N/A   Clear
6:15 AM 32.0 °F 24.8 °F 75% 30.18 in 10.0 mi North - - N/A   Clear
6:35 AM 32.0 °F 24.8 °F 75% 30.18 in 10.0 mi North - - N/A   Clear
6:55 AM 32.0 °F 24.8 °F 75% 30.19 in 10.0 mi North - - N/A   Clear
7:15 AM 33.8 °F 24.8 °F 70% 30.20 in 10.0 mi North - - N/A   Clear
7:35 AM 35.6 °F 24.8 °F 65% 30.21 in 10.0 mi North - - N/A   Clear
7:55 AM 35.6 °F 24.8 °F 65% 30.22 in 10.0 mi North - - N/A   Clear
8:15 AM 37.4 °F 24.8 °F 60% 30.22 in 10.0 mi North - - N/A   Clear
8:35 AM 39.2 °F 24.8 °F 56% 30.23 in 10.0 mi North - - N/A   Clear
8:55 AM 41.0 °F 24.8 °F 53% 30.22 in 10.0 mi North - - N/A   Clear
9:15 AM 41.0 °F 24.8 °F 53% 30.22 in 10.0 mi North - - N/A   Clear
9:35 AM 42.8 °F 24.8 °F 49% 30.22 in 10.0 mi North - - N/A   Clear
9:55 AM 44.6 °F 24.8 °F 46% 30.21 in 10.0 mi North - - N/A   Clear
10:15 AM 44.6 °F 24.8 °F 46% 30.21 in 10.0 mi North - - N/A   Clear
10:35 AM 44.6 °F 24.8 °F 46% 30.21 in 10.0 mi North - - N/A   Clear
10:55 AM 46.4 °F 24.8 °F 43% 30.20 in 10.0 mi North - - N/A   Clear
11:15 AM 46.4 °F 24.8 °F 43% 30.20 in 10.0 mi North - - N/A   Clear
11:35 AM 48.2 °F 24.8 °F 40% 30.20 in 10.0 mi North - - N/A   Clear
11:55 AM 48.2 °F 24.8 °F 40% 30.19 in 10.0 mi North - - N/A   Clear
12:15 PM 50.0 °F 24.8 °F 37% 30.17 in 10.0 mi North - - N/A   Clear
12:35 PM 50.0 °F 24.8 °F 37% 30.17 in 10.0 mi North - - N/A   Clear
12:55 PM 51.8 °F 24.8 °F 35% 30.16 in 10.0 mi North - - N/A   Clear
1:15 PM 51.8 °F 26.6 °F 38% 30.15 in 10.0 mi North - - N/A   Clear
1:35 PM 53.6 °F 24.8 °F 33% 30.14 in 10.0 mi North - - N/A   Clear
1:55 PM 53.6 °F 26.6 °F 35% 30.13 in 10.0 mi North - - N/A   Clear
2:15 PM 53.6 °F 24.8 °F 33% 30.13 in 10.0 mi North - - N/A   Clear
2:35 PM 53.6 °F 24.8 °F 33% 30.13 in 10.0 mi North - - N/A   Clear
2:55 PM 53.6 °F 26.6 °F 35% 30.13 in 10.0 mi North - - N/A   Clear
3:15 PM 53.6 °F 26.6 °F 35% 30.13 in 10.0 mi North - - N/A   Clear
3:35 PM 53.6 °F 24.8 °F 33% 30.13 in 10.0 mi North - - N/A   Clear
3:55 PM 53.6 °F 26.6 °F 35% 30.13 in 10.0 mi North - - N/A   Clear
4:15 PM 53.6 °F 26.6 °F 35% 30.13 in 10.0 mi North - - N/A   Clear
4:35 PM 53.6 °F 24.8 °F 33% 30.13 in 10.0 mi North - - N/A   Clear
4:55 PM 53.6 °F 26.6 °F 35% 30.13 in 10.0 mi North - - N/A   Clear
5:15 PM 53.6 °F 26.6 °F 35% 30.14 in 10.0 mi North - - N/A   Clear
5:35 PM 51.8 °F 26.6 °F 38% 30.14 in 10.0 mi North - - N/A   Clear
5:55 PM 50.0 °F 26.6 °F 40% 30.15 in 10.0 mi North - - N/A   Clear
6:15 PM 50.0 °F 26.6 °F 40% 30.16 in 10.0 mi North - - N/A   Clear
6:35 PM 48.2 °F 26.6 °F 43% 30.17 in 10.0 mi North - - N/A   Clear
6:55 PM 44.6 °F 26.6 °F 49% 30.17 in 10.0 mi North - - N/A   Clear
8:35 PM 44.6 °F 26.6 °F 49% 30.20 in 10.0 mi North - - N/A   Clear
8:55 PM 42.8 °F 26.6 °F 53% 30.21 in 10.0 mi North - - N/A   Clear
9:15 PM 42.8 °F 26.6 °F 53% 30.22 in 10.0 mi North - - N/A   Clear
9:35 PM 41.0 °F 26.6 °F 57% 30.23 in 10.0 mi North - - N/A   Clear
9:55 PM 41.0 °F 26.6 °F 57% 30.24 in 10.0 mi North - - N/A   Clear
10:15 PM 41.0 °F 24.8 °F 53% 30.24 in 10.0 mi North - - N/A   Clear
10:35 PM 39.2 °F 24.8 °F 56% 30.24 in 10.0 mi North - - N/A   Unknown
10:55 PM 39.2 °F 24.8 °F 56% 30.25 in 10.0 mi North - - N/A   Clear
11:15 PM 39.2 °F 24.8 °F 56% 30.25 in 10.0 mi North - - N/A   Clear
11:35 PM 39.2 °F 23.0 °F 52% 30.25 in 10.0 mi North - - N/A   Clear
11:55 PM 37.4 °F 23.0 °F 56% 30.25 in 10.0 mi North - - N/A   Clear